createdAt,value
2018-08-11T06:51:24.888Z,78.80
2018-08-11T06:53:54.896Z,78.50
2018-08-11T06:56:35.488Z,79.60
2018-08-11T06:59:04.913Z,79.80
2018-08-11T07:01:34.303Z,79.60
2018-08-11T07:04:03.679Z,78.50
2018-08-11T07:06:33.096Z,77.80
2018-08-11T07:09:02.492Z,77.50
2018-08-11T07:11:31.823Z,76.40
2018-08-11T07:14:01.206Z,77.20
2018-08-11T07:16:30.604Z,77.40
2018-08-11T07:18:59.917Z,78.00
2018-08-11T07:21:29.310Z,76.60
2018-08-11T07:23:58.644Z,77.20
2018-08-11T07:26:28.061Z,77.30
2018-08-11T07:28:57.381Z,77.90
2018-08-11T07:31:26.740Z,77.90
2018-08-11T07:33:56.135Z,77.70
2018-08-11T07:36:25.635Z,77.30
2018-08-11T07:38:54.857Z,77.10
2018-08-11T07:41:24.183Z,78.00
2018-08-11T07:43:53.592Z,76.40
2018-08-11T07:46:23.304Z,76.40
2018-08-11T07:48:52.737Z,74.80
2018-08-11T07:51:22.084Z,72.90
2018-08-11T07:53:51.747Z,74.90
2018-08-11T07:56:21.216Z,76.00
2018-08-11T07:58:50.712Z,75.00
2018-08-11T08:01:20.151Z,76.30
2018-08-11T08:03:49.634Z,76.20
2018-08-11T08:06:18.987Z,77.20
2018-08-11T08:08:48.321Z,75.80
2018-08-11T08:11:17.654Z,75.30
2018-08-11T08:13:46.963Z,76.70
2018-08-11T08:16:16.262Z,75.30
2018-08-11T08:18:45.587Z,74.80
2018-08-11T08:21:14.845Z,75.40
2018-08-11T08:23:44.243Z,75.30
2018-08-11T08:26:13.682Z,75.20
2018-08-11T08:28:43.036Z,75.30
2018-08-11T08:31:12.348Z,75.30
2018-08-11T08:33:41.821Z,74.30
2018-08-11T08:36:11.143Z,73.30
2018-08-11T08:38:40.412Z,71.80
2018-08-11T08:41:09.714Z,73.10
2018-08-11T08:43:38.932Z,72.50
2018-08-11T08:46:08.394Z,73.60
2018-08-11T08:48:37.686Z,72.60
2018-08-11T08:51:07.007Z,70.70
2018-08-11T08:53:36.242Z,70.30
2018-08-11T08:56:05.542Z,70.80
2018-08-11T08:58:34.823Z,70.20
2018-08-11T09:01:04.123Z,70.00
2018-08-11T09:03:33.391Z,70.80
2018-08-11T09:06:02.724Z,70.30
2018-08-11T09:08:32.011Z,70.20
2018-08-11T09:11:01.280Z,70.50
2018-08-11T09:13:30.576Z,70.70
2018-08-11T09:15:59.861Z,70.40
2018-08-11T09:18:29.108Z,70.00
2018-08-11T09:20:58.499Z,69.50
2018-08-11T09:23:27.926Z,69.90
2018-08-11T09:25:57.225Z,68.80
2018-08-11T09:28:26.541Z,68.60
2018-08-11T09:30:55.838Z,68.30
2018-08-11T09:33:25.180Z,68.50
2018-08-11T09:35:54.424Z,67.80
2018-08-11T09:38:23.718Z,67.70
2018-08-11T09:40:53.010Z,67.60
2018-08-11T09:43:22.305Z,67.20
2018-08-11T09:45:51.680Z,66.70
2018-08-11T09:48:20.954Z,67.00
2018-08-11T09:50:50.342Z,67.00
2018-08-11T09:53:19.588Z,66.30
2018-08-11T09:55:48.868Z,65.90
2018-08-11T09:58:18.255Z,64.90
2018-08-11T10:00:49.330Z,65.00
2018-08-11T10:03:18.627Z,64.40
2018-08-11T10:05:47.883Z,63.90
2018-08-11T10:08:17.167Z,63.90
2018-08-11T10:10:46.490Z,63.80
2018-08-11T10:13:15.816Z,63.50
2018-08-11T10:15:45.300Z,63.10
2018-08-11T10:18:14.813Z,62.40
2018-08-11T10:20:44.080Z,62.60
2018-08-11T10:23:13.508Z,61.00
2018-08-11T10:25:42.918Z,59.50
2018-08-11T10:28:12.259Z,59.00
2018-08-11T10:30:41.559Z,60.00
2018-08-11T10:33:10.815Z,59.20
2018-08-11T10:35:40.137Z,58.10
2018-08-11T10:38:09.391Z,59.00
2018-08-11T10:40:38.706Z,58.30
2018-08-11T10:43:07.938Z,57.50
2018-08-11T10:45:37.240Z,56.70
2018-08-11T10:48:06.543Z,56.20
2018-08-11T10:50:36.210Z,57.60
2018-08-11T10:53:05.642Z,58.50
2018-08-11T10:55:35.095Z,58.10
2018-08-11T10:58:04.587Z,57.90
2018-08-11T11:00:34.454Z,57.80
2018-08-11T11:03:03.785Z,57.30
2018-08-11T11:05:33.663Z,57.10
2018-08-11T11:08:03.060Z,56.40
2018-08-11T11:10:32.434Z,56.40
2018-08-11T11:13:01.709Z,56.00
2018-08-11T11:15:30.989Z,55.90
2018-08-11T11:18:00.256Z,55.80
2018-08-11T11:20:29.599Z,55.70
2018-08-11T11:22:58.857Z,54.90
2018-08-11T11:25:28.108Z,54.50
2018-08-11T11:27:57.346Z,54.80
2018-08-11T11:30:26.626Z,54.40
2018-08-11T11:32:55.962Z,54.50
2018-08-11T11:35:25.311Z,53.40
2018-08-11T11:37:54.634Z,53.70
2018-08-11T11:40:23.902Z,53.30
2018-08-11T11:42:53.194Z,52.90
2018-08-11T11:45:22.537Z,52.20
2018-08-11T11:47:55.350Z,52.70
2018-08-11T11:50:24.701Z,53.00
2018-08-11T11:52:53.990Z,53.20
2018-08-11T11:55:23.517Z,53.30
2018-08-11T11:57:52.818Z,53.70
2018-08-11T12:00:22.167Z,54.20
2018-08-11T12:02:51.441Z,54.20
2018-08-11T12:05:20.676Z,54.30
2018-08-11T12:07:49.932Z,53.80
2018-08-11T12:10:19.245Z,53.40
2018-08-11T12:12:48.642Z,53.10
2018-08-11T12:15:17.861Z,53.20
2018-08-11T12:17:47.142Z,53.00
2018-08-11T12:20:16.440Z,52.50
2018-08-11T12:22:45.791Z,52.60
2018-08-11T12:25:15.169Z,53.00
2018-08-11T12:27:44.464Z,53.80
2018-08-11T12:30:13.746Z,54.20
2018-08-11T12:32:43.054Z,53.40
2018-08-11T12:35:12.342Z,53.40
2018-08-11T12:37:41.711Z,53.40
2018-08-11T12:40:10.976Z,52.90
2018-08-11T12:42:40.240Z,52.20
2018-08-11T12:45:09.813Z,52.60
2018-08-11T12:47:39.078Z,53.40
2018-08-11T12:50:08.366Z,53.70
2018-08-11T12:52:37.630Z,54.00
2018-08-11T12:55:07.131Z,54.30
2018-08-11T12:57:36.491Z,53.90
2018-08-11T13:00:07.485Z,53.60
2018-08-11T13:02:37.072Z,54.30
2018-08-11T13:05:06.637Z,54.60
2018-08-11T13:07:35.968Z,54.70
2018-08-11T13:10:06.164Z,55.10
2018-08-11T13:12:35.434Z,55.30
2018-08-11T13:15:05.493Z,55.40
2018-08-11T13:17:34.839Z,55.10
2018-08-11T13:20:04.231Z,55.40
2018-08-11T13:22:33.526Z,55.90
2018-08-11T13:25:02.895Z,55.70
2018-08-11T13:27:32.207Z,56.20
2018-08-11T13:30:01.557Z,56.60
2018-08-11T13:32:30.951Z,57.20
2018-08-11T13:35:00.298Z,57.60
2018-08-11T13:37:29.647Z,57.80
2018-08-11T13:39:58.936Z,57.80
2018-08-11T13:42:28.186Z,58.20
2018-08-11T13:44:57.453Z,58.40
2018-08-11T13:47:26.804Z,58.60
2018-08-11T13:49:56.067Z,58.90
2018-08-11T13:52:25.366Z,58.80
2018-08-11T13:54:54.664Z,59.00
2018-08-11T13:57:25.546Z,58.80
2018-08-11T13:59:54.816Z,58.80
2018-08-11T14:02:24.232Z,59.10
2018-08-11T14:04:53.589Z,59.30
2018-08-11T14:07:22.966Z,59.10
2018-08-11T14:09:52.306Z,59.20
2018-08-11T14:12:21.677Z,59.50
2018-08-11T14:14:51.114Z,59.60
2018-08-11T14:17:20.650Z,59.80
2018-08-11T14:19:50.048Z,60.00
2018-08-11T14:22:19.338Z,60.50
2018-08-11T14:24:48.678Z,60.60
2018-08-11T14:27:18.037Z,60.50
2018-08-11T14:29:47.399Z,60.30
2018-08-11T14:32:16.726Z,60.80
2018-08-11T14:34:46.115Z,60.80
2018-08-11T14:37:15.491Z,60.70
2018-08-11T14:39:44.825Z,60.70
2018-08-11T14:42:14.170Z,61.20
2018-08-11T14:44:43.437Z,61.30
2018-08-11T14:47:12.737Z,61.10
2018-08-11T14:49:42.027Z,61.50
2018-08-11T14:52:11.248Z,61.50
2018-08-11T14:54:40.618Z,61.40
2018-08-11T14:57:09.993Z,61.50
2018-08-11T14:59:39.446Z,61.80
2018-08-11T15:02:08.743Z,61.60
2018-08-11T15:04:37.999Z,62.60
2018-08-11T15:07:07.372Z,62.60
2018-08-11T15:09:36.591Z,62.90
2018-08-11T15:12:05.821Z,63.40
2018-08-11T15:14:35.118Z,63.60
2018-08-11T15:17:04.486Z,63.70
2018-08-11T15:19:33.812Z,64.40
2018-08-11T15:22:03.126Z,64.40
2018-08-11T15:24:32.483Z,64.40
2018-08-11T15:27:01.780Z,64.50
2018-08-11T15:29:31.112Z,64.80
2018-08-11T15:32:00.399Z,65.00
2018-08-11T15:34:29.722Z,65.30
2018-08-11T15:36:59.109Z,65.50
2018-08-11T15:39:28.378Z,66.00
2018-08-11T15:41:57.694Z,66.40
2018-08-11T15:44:27.044Z,66.60
2018-08-11T15:46:56.362Z,66.70
2018-08-11T15:49:25.641Z,66.90
2018-08-11T15:51:55.042Z,66.90
2018-08-11T15:54:24.476Z,67.00
2018-08-11T15:56:53.708Z,67.30
2018-08-11T15:59:22.932Z,67.40
2018-08-11T16:01:52.414Z,67.10
2018-08-11T16:04:21.807Z,67.80
2018-08-11T16:06:51.141Z,67.20
2018-08-11T16:09:20.517Z,66.50
2018-08-11T16:11:49.951Z,66.90
2018-08-11T16:14:19.238Z,66.60
2018-08-11T16:16:48.604Z,66.50
2018-08-11T16:19:17.869Z,66.20
2018-08-11T16:21:47.109Z,67.30
2018-08-11T16:24:16.430Z,66.50
2018-08-11T16:26:45.702Z,66.30
2018-08-11T16:29:15.041Z,66.00
2018-08-11T16:31:44.318Z,66.80
2018-08-11T16:34:13.624Z,67.40
2018-08-11T16:36:42.936Z,67.10
2018-08-11T16:39:12.287Z,67.40
2018-08-11T16:41:41.557Z,67.60
2018-08-11T16:44:10.861Z,69.00
2018-08-11T16:46:40.188Z,69.50
2018-08-11T16:49:09.538Z,68.60
2018-08-11T16:51:38.893Z,69.20
2018-08-11T16:54:08.212Z,69.30
2018-08-11T16:56:37.486Z,68.90
2018-08-11T16:59:06.847Z,70.20
2018-08-11T17:01:36.146Z,70.10
2018-08-11T17:04:05.476Z,69.90
2018-08-11T17:06:34.899Z,69.20
2018-08-11T17:09:06.338Z,70.10
2018-08-11T17:11:35.620Z,70.10
2018-08-11T17:14:05.071Z,69.40
2018-08-11T17:16:35.467Z,69.90
2018-08-11T17:19:04.771Z,69.50
2018-08-11T17:21:34.060Z,69.50
2018-08-11T17:24:03.329Z,69.70
2018-08-11T17:26:32.635Z,70.10
2018-08-11T17:29:01.866Z,69.90
2018-08-11T17:31:31.278Z,69.60
2018-08-11T17:34:00.747Z,69.80
2018-08-11T17:36:30.043Z,69.60
2018-08-11T17:38:59.365Z,69.30
2018-08-11T17:41:28.747Z,70.30
2018-08-11T17:43:58.020Z,68.30
2018-08-11T17:46:27.342Z,68.70
2018-08-11T17:48:56.613Z,68.10
2018-08-11T17:51:25.927Z,69.50
2018-08-11T17:53:55.246Z,66.70
2018-08-11T17:56:24.620Z,63.60
2018-08-11T17:58:54.284Z,67.90
2018-08-11T18:01:23.709Z,66.70
2018-08-11T18:03:53.040Z,68.30
2018-08-11T18:06:22.314Z,65.50
2018-08-11T18:08:51.854Z,66.20
2018-08-11T18:11:21.358Z,64.30
2018-08-11T18:13:50.768Z,66.40
2018-08-11T18:16:20.076Z,63.50
2018-08-11T18:18:49.415Z,65.60
2018-08-11T18:21:18.729Z,64.70
2018-08-11T18:23:47.942Z,67.00
2018-08-11T18:26:17.251Z,67.30
2018-08-11T18:28:46.542Z,66.80
2018-08-11T18:31:15.918Z,67.40
2018-08-11T18:33:45.229Z,67.10
2018-08-11T18:36:14.623Z,67.10
2018-08-11T18:38:43.886Z,67.60
2018-08-11T18:41:13.224Z,67.80
2018-08-11T18:43:42.659Z,66.50
2018-08-11T18:46:11.980Z,66.30
2018-08-11T18:48:41.271Z,67.20
2018-08-11T18:51:10.730Z,66.90
2018-08-11T18:53:40.009Z,67.60
2018-08-11T18:56:09.394Z,67.50
2018-08-11T18:58:38.761Z,67.30
2018-08-11T19:01:08.176Z,67.30
2018-08-11T19:03:37.483Z,67.60
2018-08-11T19:06:06.889Z,66.60
2018-08-11T19:08:36.183Z,66.30
2018-08-11T19:11:05.626Z,66.10
2018-08-11T19:13:34.988Z,66.60
2018-08-11T19:16:04.368Z,66.90
2018-08-11T19:18:33.730Z,67.10
2018-08-11T19:21:03.068Z,67.20
2018-08-11T19:23:32.387Z,67.40
2018-08-11T19:26:01.848Z,67.60
2018-08-11T19:28:31.128Z,68.00
2018-08-11T19:31:00.440Z,67.40
2018-08-11T19:33:29.933Z,67.00
2018-08-11T19:35:59.252Z,67.90
2018-08-11T19:38:28.659Z,67.70
2018-08-11T19:40:58.069Z,68.00
2018-08-11T19:43:27.420Z,67.70
2018-08-11T19:45:56.818Z,68.20
2018-08-11T19:48:26.139Z,67.30
2018-08-11T19:50:55.411Z,67.40
2018-08-11T19:53:24.798Z,67.60
2018-08-11T19:55:54.135Z,68.00
2018-08-11T19:58:23.503Z,68.20
2018-08-11T20:00:52.850Z,68.50
2018-08-11T20:03:22.153Z,69.00
2018-08-11T20:05:51.520Z,69.10
2018-08-11T20:08:20.833Z,69.70
2018-08-11T20:10:50.285Z,68.90
2018-08-11T20:13:19.615Z,68.90
2018-08-11T20:15:48.952Z,68.90
2018-08-11T20:18:18.293Z,68.70
2018-08-11T20:20:47.635Z,68.90
2018-08-11T20:23:16.900Z,68.90
2018-08-11T20:25:46.326Z,69.20
2018-08-11T20:28:15.625Z,69.40
2018-08-11T20:30:44.938Z,69.40
2018-08-11T20:33:14.219Z,69.80
2018-08-11T20:35:43.467Z,69.40
2018-08-11T20:38:12.905Z,70.00
2018-08-11T20:40:42.256Z,69.60
2018-08-11T20:43:11.531Z,69.70
2018-08-11T20:45:40.822Z,69.20
2018-08-11T20:48:10.099Z,67.80
2018-08-11T20:50:39.448Z,68.00
2018-08-11T20:53:08.796Z,69.40
2018-08-11T20:55:38.186Z,72.10
2018-08-11T20:58:07.481Z,73.40
2018-08-11T21:00:36.819Z,74.10
2018-08-11T21:03:09.151Z,75.00
2018-08-11T21:05:38.449Z,75.00
2018-08-11T21:08:08.230Z,75.30
2018-08-11T21:10:37.612Z,75.50
2018-08-11T21:13:07.275Z,75.70
2018-08-11T21:15:36.619Z,76.50
2018-08-11T21:18:05.885Z,77.80
2018-08-11T21:20:35.207Z,78.50
2018-08-11T21:23:04.515Z,79.60
2018-08-11T21:25:33.824Z,79.80
2018-08-11T21:28:03.107Z,79.90
2018-08-11T21:30:32.425Z,80.70
2018-08-11T21:33:01.759Z,81.10
